QTR921 OERK-OTHH
Flight info
| Callsign | QTR921 |
|---|---|
| Flight time | 0h 59m |
| Altitude | 35000 |
| Route | OTALI2C OTALI M440 SITER DCT LADBO/N0489F290 T142 LAEEB LAEEB1P |
| Aircraft | A333/H-SDE3GHIJ2J3J5M1RVWXYZ/LB2D1 |
Departure
| Time | 2026-05-07 09:30 |
|---|---|
| Airport | King Khalid International Airport (OERK) |
Arrival
| Time | 2026-05-07 10:30 |
|---|---|
| Airport | Hamad International Airport (OTHH) |
| Time | Latitude | Longitude | Altitude | Speed | Heading |
|---|---|---|---|---|---|
| 2026-05-07 08:56 | 24.96046 | 46.68942 | 2055 ft | 0 kts | 61° |
| 2026-05-07 09:16 | 24.96046 | 46.68941 | 2055 ft | 0 kts | 61° |
| 2026-05-07 09:17 | 24.96046 | 46.68942 | 2055 ft | 0 kts | 61° |
| 2026-05-07 09:17 | 24.96046 | 46.68941 | 2055 ft | 0 kts | 61° |
| 2026-05-07 09:18 | 24.96042 | 46.68933 | 2055 ft | 1 kts | 61° |
| 2026-05-07 09:18 | 24.96036 | 46.68922 | 2055 ft | 3 kts | 61° |
| 2026-05-07 09:18 | 24.96022 | 46.68893 | 2055 ft | 4 kts | 63° |
| 2026-05-07 09:18 | 24.96010 | 46.68859 | 2055 ft | 3 kts | 92° |
| 2026-05-07 09:19 | 24.96015 | 46.68846 | 2055 ft | 0 kts | 147° |
| 2026-05-07 09:22 | 24.95979 | 46.68870 | 2055 ft | 13 kts | 148° |
| 2026-05-07 09:23 | 24.95851 | 46.68954 | 2055 ft | 29 kts | 148° |
| 2026-05-07 09:23 | 24.95673 | 46.69044 | 2055 ft | 15 kts | 183° |
| 2026-05-07 09:23 | 24.95628 | 46.68991 | 2055 ft | 14 kts | 240° |
| 2026-05-07 09:23 | 24.95573 | 46.68888 | 2055 ft | 0 kts | 240° |
| 2026-05-07 09:24 | 24.95559 | 46.68864 | 2055 ft | 8 kts | 231° |
| 2026-05-07 09:24 | 24.95473 | 46.68858 | 2055 ft | 18 kts | 153° |
| 2026-05-07 09:24 | 24.95333 | 46.68946 | 2055 ft | 17 kts | 151° |
| 2026-05-07 09:24 | 24.95317 | 46.68957 | 2055 ft | 6 kts | 149° |
| 2026-05-07 09:25 | 24.95248 | 46.69000 | 2055 ft | 16 kts | 150° |
| 2026-05-07 09:25 | 24.95115 | 46.69087 | 2055 ft | 27 kts | 151° |
| 2026-05-07 09:25 | 24.94917 | 46.69209 | 2055 ft | 37 kts | 152° |
| 2026-05-07 09:25 | 24.94658 | 46.69370 | 2055 ft | 47 kts | 149° |
| 2026-05-07 09:26 | 24.94574 | 46.69424 | 2055 ft | 5 kts | 150° |
| 2026-05-07 09:26 | 24.94551 | 46.69440 | 2055 ft | 0 kts | 149° |
| 2026-05-07 09:26 | 24.94535 | 46.69450 | 2055 ft | 7 kts | 149° |
| 2026-05-07 09:26 | 24.94516 | 46.69462 | 2055 ft | 4 kts | 150° |
| 2026-05-07 09:27 | 24.94454 | 46.69501 | 2055 ft | 15 kts | 150° |
| 2026-05-07 09:27 | 24.94326 | 46.69582 | 2055 ft | 26 kts | 150° |
| 2026-05-07 09:27 | 24.94156 | 46.69691 | 2055 ft | 7 kts | 151° |
| 2026-05-07 09:28 | 24.94076 | 46.69740 | 2055 ft | 18 kts | 151° |
| 2026-05-07 09:28 | 24.93932 | 46.69759 | 2055 ft | 27 kts | 230° |
| 2026-05-07 09:28 | 24.93876 | 46.69542 | 2055 ft | 25 kts | 289° |
| 2026-05-07 09:28 | 24.93891 | 46.69519 | 2055 ft | 0 kts | 330° |
| 2026-05-07 09:29 | 24.93894 | 46.69516 | 2055 ft | 8 kts | 330° |
| 2026-05-07 09:29 | 24.94140 | 46.69361 | 2055 ft | 72 kts | 330° |
| 2026-05-07 09:29 | 24.94751 | 46.68974 | 2055 ft | 129 kts | 329° |
| 2026-05-07 09:30 | 24.95671 | 46.68391 | 2056 ft | 176 kts | 330° |
| 2026-05-07 09:30 | 24.96807 | 46.67675 | 2336 ft | 194 kts | 330° |
| 2026-05-07 09:30 | 24.97924 | 46.66991 | 3338 ft | 178 kts | 330° |
| 2026-05-07 09:30 | 24.98876 | 46.66228 | 4254 ft | 174 kts | 320° |
| 2026-05-07 09:31 | 24.99772 | 46.65232 | 4835 ft | 207 kts | 312° |
| 2026-05-07 09:31 | 25.00856 | 46.64044 | 5746 ft | 228 kts | 317° |
| 2026-05-07 09:31 | 25.02011 | 46.62884 | 7036 ft | 230 kts | 318° |
| 2026-05-07 09:31 | 25.03218 | 46.61720 | 8018 ft | 246 kts | 319° |
| 2026-05-07 09:32 | 25.04612 | 46.60392 | 7966 ft | 275 kts | 319° |
| 2026-05-07 09:32 | 25.06018 | 46.59059 | 8386 ft | 261 kts | 319° |
| 2026-05-07 09:32 | 25.07280 | 46.57863 | 9753 ft | 228 kts | 319° |
| 2026-05-07 09:32 | 25.08471 | 46.56733 | 10334 ft | 229 kts | 319° |
| 2026-05-07 09:33 | 25.09681 | 46.55586 | 10819 ft | 234 kts | 319° |
| 2026-05-07 09:33 | 25.10926 | 46.54405 | 11356 ft | 236 kts | 319° |
| 2026-05-07 09:33 | 25.12181 | 46.53215 | 11860 ft | 239 kts | 319° |
| 2026-05-07 09:33 | 25.13441 | 46.52021 | 12359 ft | 242 kts | 320° |
| 2026-05-07 09:34 | 25.14905 | 46.51123 | 12785 ft | 247 kts | 348° |
| 2026-05-07 09:34 | 25.16620 | 46.51146 | 13263 ft | 250 kts | 18° |
| 2026-05-07 09:34 | 25.18244 | 46.51812 | 13767 ft | 251 kts | 19° |
| 2026-05-07 09:34 | 25.19917 | 46.52434 | 14248 ft | 255 kts | 19° |
| 2026-05-07 09:35 | 25.21617 | 46.53054 | 14729 ft | 258 kts | 18° |
| 2026-05-07 09:35 | 25.23324 | 46.53671 | 15204 ft | 261 kts | 18° |
| 2026-05-07 09:35 | 25.24925 | 46.54634 | 15618 ft | 265 kts | 45° |
| 2026-05-07 09:35 | 25.25943 | 46.56318 | 16063 ft | 268 kts | 72° |
| 2026-05-07 09:36 | 25.26151 | 46.58352 | 16511 ft | 270 kts | 96° |
| 2026-05-07 09:36 | 25.26047 | 46.60424 | 16974 ft | 273 kts | 91° |
| 2026-05-07 09:36 | 25.26036 | 46.62527 | 17433 ft | 276 kts | 90° |
| 2026-05-07 09:36 | 25.26035 | 46.64648 | 17880 ft | 279 kts | 90° |
| 2026-05-07 09:37 | 25.26039 | 46.66797 | 18327 ft | 282 kts | 90° |
| 2026-05-07 09:37 | 25.26045 | 46.68955 | 18766 ft | 285 kts | 90° |
| 2026-05-07 09:37 | 25.26050 | 46.71167 | 19204 ft | 288 kts | 90° |
| 2026-05-07 09:37 | 25.25911 | 46.73364 | 19593 ft | 291 kts | 106° |
| 2026-05-07 09:38 | 25.25070 | 46.75374 | 19971 ft | 294 kts | 121° |
| 2026-05-07 09:38 | 25.24065 | 46.77356 | 20419 ft | 296 kts | 118° |
| 2026-05-07 09:38 | 25.23066 | 46.79362 | 20821 ft | 299 kts | 119° |
| 2026-05-07 09:38 | 25.22059 | 46.81382 | 21214 ft | 302 kts | 119° |
| 2026-05-07 09:39 | 25.21042 | 46.83424 | 21608 ft | 305 kts | 119° |
| 2026-05-07 09:39 | 25.20018 | 46.85477 | 21993 ft | 308 kts | 119° |
| 2026-05-07 09:39 | 25.18986 | 46.87547 | 22370 ft | 311 kts | 119° |
| 2026-05-07 09:39 | 25.17942 | 46.89636 | 22741 ft | 313 kts | 119° |
| 2026-05-07 09:40 | 25.16886 | 46.91747 | 23105 ft | 316 kts | 119° |
| 2026-05-07 09:40 | 25.15826 | 46.93868 | 23463 ft | 319 kts | 119° |
| 2026-05-07 09:40 | 25.14736 | 46.96044 | 23826 ft | 322 kts | 119° |
| 2026-05-07 09:40 | 25.13652 | 46.98209 | 24180 ft | 324 kts | 119° |
| 2026-05-07 09:41 | 25.12561 | 47.00386 | 24529 ft | 327 kts | 119° |
| 2026-05-07 09:41 | 25.11456 | 47.02590 | 24877 ft | 330 kts | 119° |
| 2026-05-07 09:41 | 25.10340 | 47.04816 | 25223 ft | 333 kts | 119° |
| 2026-05-07 09:41 | 25.09594 | 47.06303 | 25450 ft | 335 kts | 119° |
| 2026-05-07 09:42 | 25.08093 | 47.09295 | 25898 ft | 338 kts | 119° |
| 2026-05-07 09:42 | 25.06938 | 47.11593 | 26236 ft | 341 kts | 119° |
| 2026-05-07 09:42 | 25.05788 | 47.13883 | 26566 ft | 344 kts | 119° |
| 2026-05-07 09:42 | 25.04628 | 47.16191 | 26892 ft | 346 kts | 119° |
| 2026-05-07 09:43 | 25.03470 | 47.18492 | 27212 ft | 349 kts | 119° |
| 2026-05-07 09:43 | 25.02285 | 47.20848 | 27534 ft | 352 kts | 119° |
| 2026-05-07 09:43 | 25.01100 | 47.23200 | 27852 ft | 354 kts | 119° |
| 2026-05-07 09:43 | 24.99895 | 47.25590 | 28170 ft | 357 kts | 119° |
| 2026-05-07 09:44 | 24.98691 | 47.27976 | 28482 ft | 360 kts | 119° |
| 2026-05-07 09:44 | 24.97470 | 47.30397 | 28795 ft | 362 kts | 119° |
| 2026-05-07 09:44 | 24.96230 | 47.32854 | 29107 ft | 365 kts | 119° |
| 2026-05-07 09:44 | 24.95008 | 47.35274 | 29410 ft | 368 kts | 119° |
| 2026-05-07 09:45 | 24.93752 | 47.37763 | 29716 ft | 371 kts | 119° |
| 2026-05-07 09:45 | 24.92475 | 47.40242 | 30011 ft | 373 kts | 123° |
| 2026-05-07 09:45 | 24.90774 | 47.42373 | 30251 ft | 376 kts | 137° |
| 2026-05-07 09:45 | 24.88847 | 47.44379 | 30570 ft | 378 kts | 136° |
| 2026-05-07 09:46 | 24.86957 | 47.46371 | 30868 ft | 380 kts | 136° |
| 2026-05-07 09:46 | 24.85044 | 47.48386 | 31130 ft | 383 kts | 136° |
| 2026-05-07 09:46 | 24.83084 | 47.50449 | 31410 ft | 386 kts | 136° |
| 2026-05-07 09:46 | 24.81120 | 47.52517 | 31685 ft | 388 kts | 136° |
| 2026-05-07 09:47 | 24.79168 | 47.54570 | 31949 ft | 391 kts | 136° |
| 2026-05-07 09:47 | 24.77187 | 47.56654 | 32211 ft | 393 kts | 136° |
| 2026-05-07 09:47 | 24.75182 | 47.58761 | 32471 ft | 396 kts | 136° |
| 2026-05-07 09:47 | 24.73194 | 47.60850 | 32721 ft | 398 kts | 136° |
| 2026-05-07 09:48 | 24.71180 | 47.62964 | 32970 ft | 401 kts | 136° |
| 2026-05-07 09:48 | 24.69158 | 47.65087 | 33213 ft | 403 kts | 136° |
| 2026-05-07 09:48 | 24.67117 | 47.67228 | 33453 ft | 405 kts | 136° |
| 2026-05-07 09:48 | 24.65072 | 47.69373 | 33688 ft | 407 kts | 136° |
| 2026-05-07 09:49 | 24.63018 | 47.71525 | 33919 ft | 410 kts | 136° |
| 2026-05-07 09:49 | 24.60936 | 47.73706 | 34148 ft | 412 kts | 136° |
| 2026-05-07 09:49 | 24.58855 | 47.75885 | 34372 ft | 414 kts | 136° |
| 2026-05-07 09:49 | 24.56773 | 47.78075 | 34588 ft | 416 kts | 134° |
| 2026-05-07 09:50 | 24.55059 | 47.80616 | 34735 ft | 419 kts | 117° |
| 2026-05-07 09:50 | 24.54011 | 47.83604 | 34944 ft | 420 kts | 109° |
| 2026-05-07 09:50 | 24.53049 | 47.86612 | 35013 ft | 414 kts | 109° |
| 2026-05-07 09:51 | 24.51121 | 47.92545 | 35029 ft | 415 kts | 109° |
| 2026-05-07 09:51 | 24.49154 | 47.98572 | 34998 ft | 423 kts | 109° |
| 2026-05-07 09:52 | 24.47165 | 48.04651 | 34993 ft | 421 kts | 109° |
| 2026-05-07 09:52 | 24.45189 | 48.10683 | 35012 ft | 420 kts | 109° |
| 2026-05-07 09:53 | 24.43212 | 48.16709 | 34999 ft | 421 kts | 109° |
| 2026-05-07 09:53 | 24.41229 | 48.22741 | 34998 ft | 421 kts | 109° |
| 2026-05-07 09:54 | 24.39257 | 48.28732 | 35001 ft | 421 kts | 109° |
| 2026-05-07 09:54 | 24.37272 | 48.34755 | 35001 ft | 421 kts | 109° |
| 2026-05-07 09:55 | 24.28527 | 48.61176 | 35049 ft | 421 kts | 109° |
| 2026-05-07 09:55 | 24.18631 | 48.92415 | 34966 ft | 422 kts | 90° |
| 2026-05-07 09:56 | 24.18777 | 48.94982 | 35039 ft | 418 kts | 84° |
| 2026-05-07 09:57 | 24.19026 | 48.98212 | 35009 ft | 422 kts | 85° |
| 2026-05-07 09:57 | 24.19487 | 49.04618 | 35014 ft | 420 kts | 85° |
| 2026-05-07 09:58 | 24.19870 | 49.10019 | 34993 ft | 421 kts | 85° |
| 2026-05-07 09:58 | 24.22887 | 49.53635 | 35240 ft | 421 kts | 85° |
| 2026-05-07 09:58 | 24.26260 | 50.04717 | 35016 ft | 422 kts | 86° |
| 2026-05-07 09:59 | 24.32502 | 51.07140 | 34971 ft | 420 kts | 86° |
| 2026-05-07 09:59 | 24.33361 | 51.20946 | 35003 ft | 418 kts | 79° |
| 2026-05-07 09:59 | 24.34299 | 51.23922 | 34999 ft | 419 kts | 61° |
| 2026-05-07 10:00 | 24.36033 | 51.26474 | 35033 ft | 420 kts | 44° |
| 2026-05-07 10:00 | 24.40318 | 51.30740 | 34412 ft | 414 kts | 43° |
| 2026-05-07 10:00 | 24.42412 | 51.32886 | 33832 ft | 413 kts | 43° |
| 2026-05-07 10:01 | 24.44479 | 51.35015 | 33333 ft | 406 kts | 43° |
| 2026-05-07 10:01 | 24.46517 | 51.37118 | 32399 ft | 403 kts | 43° |
| 2026-05-07 10:01 | 24.48539 | 51.39208 | 31479 ft | 399 kts | 43° |
| 2026-05-07 10:01 | 24.50538 | 51.41275 | 30652 ft | 392 kts | 43° |
| 2026-05-07 10:02 | 24.52533 | 51.43295 | 29803 ft | 386 kts | 37° |
| 2026-05-07 10:02 | 24.54822 | 51.44788 | 28887 ft | 382 kts | 25° |
| 2026-05-07 10:02 | 24.57169 | 51.46033 | 28067 ft | 376 kts | 26° |
| 2026-05-07 10:02 | 24.59498 | 51.47289 | 27254 ft | 371 kts | 26° |
| 2026-05-07 10:03 | 24.61816 | 51.48540 | 26412 ft | 366 kts | 26° |
| 2026-05-07 10:03 | 24.64059 | 51.49750 | 25592 ft | 362 kts | 26° |
| 2026-05-07 10:03 | 24.66304 | 51.50923 | 24780 ft | 357 kts | 19° |
| 2026-05-07 10:03 | 24.68726 | 51.51432 | 23914 ft | 353 kts | 358° |
| 2026-05-07 10:04 | 24.71083 | 51.50959 | 23184 ft | 345 kts | 337° |
| 2026-05-07 10:04 | 24.73263 | 51.49912 | 22555 ft | 337 kts | 336° |
| 2026-05-07 10:04 | 24.75403 | 51.48899 | 21808 ft | 333 kts | 336° |
| 2026-05-07 10:04 | 24.77522 | 51.47892 | 21041 ft | 330 kts | 336° |
| 2026-05-07 10:05 | 24.79595 | 51.46907 | 20321 ft | 326 kts | 336° |
| 2026-05-07 10:05 | 24.81665 | 51.45922 | 19638 ft | 320 kts | 336° |
| 2026-05-07 10:05 | 24.83642 | 51.44981 | 19269 ft | 305 kts | 336° |
| 2026-05-07 10:05 | 24.85573 | 51.44061 | 18436 ft | 301 kts | 336° |
| 2026-05-07 10:06 | 24.87489 | 51.43152 | 17481 ft | 301 kts | 338° |
| 2026-05-07 10:06 | 24.89499 | 51.42696 | 16602 ft | 296 kts | 2° |
| 2026-05-07 10:06 | 24.91464 | 51.43213 | 15722 ft | 292 kts | 28° |
| 2026-05-07 10:06 | 24.93007 | 51.44590 | 14841 ft | 289 kts | 54° |
| 2026-05-07 10:07 | 24.93918 | 51.46534 | 14002 ft | 284 kts | 68° |
| 2026-05-07 10:07 | 24.94665 | 51.48518 | 13194 ft | 281 kts | 68° |
| 2026-05-07 10:07 | 24.95394 | 51.50489 | 12390 ft | 277 kts | 68° |
| 2026-05-07 10:07 | 24.96110 | 51.52440 | 11954 ft | 276 kts | 68° |
| 2026-05-07 10:08 | 24.96828 | 51.54401 | 12065 ft | 276 kts | 68° |
| 2026-05-07 10:08 | 24.97539 | 51.56347 | 11982 ft | 277 kts | 68° |
| 2026-05-07 10:08 | 24.98261 | 51.58322 | 12002 ft | 275 kts | 68° |
| 2026-05-07 10:08 | 24.98980 | 51.60278 | 12017 ft | 277 kts | 68° |
| 2026-05-07 10:09 | 24.99697 | 51.62225 | 11806 ft | 267 kts | 68° |
| 2026-05-07 10:09 | 25.00387 | 51.64098 | 10981 ft | 269 kts | 68° |
| 2026-05-07 10:09 | 25.01087 | 51.66000 | 10114 ft | 269 kts | 68° |
| 2026-05-07 10:09 | 25.01777 | 51.67876 | 9359 ft | 265 kts | 68° |
| 2026-05-07 10:10 | 25.02459 | 51.69733 | 8608 ft | 262 kts | 68° |
| 2026-05-07 10:10 | 25.03141 | 51.71589 | 7990 ft | 262 kts | 68° |
| 2026-05-07 10:10 | 25.03817 | 51.73428 | 8118 ft | 259 kts | 68° |
| 2026-05-07 10:10 | 25.04490 | 51.75262 | 7982 ft | 261 kts | 68° |
| 2026-05-07 10:11 | 25.05174 | 51.77124 | 7997 ft | 257 kts | 68° |
| 2026-05-07 10:11 | 25.06114 | 51.78764 | 8002 ft | 259 kts | 43° |
| 2026-05-07 10:11 | 25.07679 | 51.79727 | 8014 ft | 259 kts | 13° |
| 2026-05-07 10:11 | 25.09458 | 51.79731 | 8014 ft | 259 kts | 344° |
| 2026-05-07 10:12 | 25.11124 | 51.78960 | 8021 ft | 259 kts | 336° |
| 2026-05-07 10:12 | 25.12801 | 51.78193 | 8001 ft | 259 kts | 338° |
| 2026-05-07 10:12 | 25.14460 | 51.77455 | 7997 ft | 258 kts | 338° |
| 2026-05-07 10:12 | 25.16131 | 51.76720 | 8008 ft | 258 kts | 338° |
| 2026-05-07 10:13 | 25.17806 | 51.75984 | 7996 ft | 255 kts | 338° |
| 2026-05-07 10:13 | 25.19406 | 51.75281 | 7969 ft | 239 kts | 338° |
| 2026-05-07 10:13 | 25.20939 | 51.74609 | 7625 ft | 233 kts | 338° |
| 2026-05-07 10:13 | 25.22457 | 51.73942 | 6926 ft | 236 kts | 338° |
| 2026-05-07 10:14 | 25.23966 | 51.73279 | 6352 ft | 233 kts | 338° |
| 2026-05-07 10:14 | 25.25448 | 51.72628 | 5773 ft | 231 kts | 338° |
| 2026-05-07 10:14 | 25.26931 | 51.71977 | 5188 ft | 229 kts | 338° |
| 2026-05-07 10:14 | 25.28407 | 51.71328 | 4607 ft | 227 kts | 338° |
| 2026-05-07 10:15 | 25.29858 | 51.70690 | 4064 ft | 225 kts | 338° |
| 2026-05-07 10:15 | 25.31302 | 51.70055 | 4013 ft | 221 kts | 338° |
| 2026-05-07 10:15 | 25.32261 | 51.69633 | 4039 ft | 223 kts | 338° |
| 2026-05-07 10:15 | 25.34199 | 51.68780 | 3995 ft | 224 kts | 338° |
| 2026-05-07 10:16 | 25.35644 | 51.68145 | 4007 ft | 225 kts | 338° |
| 2026-05-07 10:16 | 25.37083 | 51.67511 | 3973 ft | 217 kts | 338° |
| 2026-05-07 10:16 | 25.38458 | 51.66906 | 3654 ft | 210 kts | 338° |
| 2026-05-07 10:16 | 25.39827 | 51.66302 | 3077 ft | 213 kts | 338° |
| 2026-05-07 10:17 | 25.41185 | 51.65704 | 2601 ft | 212 kts | 338° |
| 2026-05-07 10:17 | 25.42558 | 51.65099 | 2516 ft | 209 kts | 338° |
| 2026-05-07 10:17 | 25.43923 | 51.64498 | 2547 ft | 212 kts | 338° |
| 2026-05-07 10:17 | 25.45268 | 51.63905 | 2480 ft | 205 kts | 338° |
| 2026-05-07 10:18 | 25.46574 | 51.63329 | 2525 ft | 197 kts | 338° |
| 2026-05-07 10:18 | 25.47841 | 51.62770 | 2595 ft | 198 kts | 338° |
| 2026-05-07 10:18 | 25.49101 | 51.62215 | 2467 ft | 196 kts | 338° |
| 2026-05-07 10:18 | 25.50372 | 51.61654 | 2515 ft | 196 kts | 338° |
| 2026-05-07 10:19 | 25.51650 | 51.61090 | 2500 ft | 197 kts | 338° |
| 2026-05-07 10:19 | 25.52927 | 51.60526 | 2501 ft | 196 kts | 338° |
| 2026-05-07 10:19 | 25.53710 | 51.60181 | 2505 ft | 196 kts | 338° |
| 2026-05-07 10:19 | 25.54243 | 51.59945 | 2504 ft | 197 kts | 338° |
| 2026-05-07 10:20 | 25.55507 | 51.59387 | 2498 ft | 197 kts | 338° |
| 2026-05-07 10:20 | 25.56789 | 51.58821 | 2502 ft | 196 kts | 338° |
| 2026-05-07 10:20 | 25.58056 | 51.58261 | 2503 ft | 197 kts | 338° |
| 2026-05-07 10:20 | 25.59341 | 51.57693 | 2499 ft | 197 kts | 338° |
| 2026-05-07 10:21 | 25.60599 | 51.57129 | 2497 ft | 197 kts | 337° |
| 2026-05-07 10:21 | 25.61597 | 51.56128 | 2458 ft | 191 kts | 298° |
| 2026-05-07 10:21 | 25.61787 | 51.54707 | 2482 ft | 187 kts | 258° |
| 2026-05-07 10:21 | 25.61115 | 51.53518 | 2534 ft | 187 kts | 220° |
| 2026-05-07 10:22 | 25.59912 | 51.53056 | 2459 ft | 186 kts | 179° |
| 2026-05-07 10:22 | 25.58637 | 51.53331 | 2537 ft | 186 kts | 170° |
| 2026-05-07 10:22 | 25.57352 | 51.53480 | 2496 ft | 187 kts | 176° |
| 2026-05-07 10:22 | 25.56046 | 51.53535 | 2501 ft | 186 kts | 179° |
| 2026-05-07 10:23 | 25.54744 | 51.53549 | 2504 ft | 186 kts | 180° |
| 2026-05-07 10:23 | 25.53446 | 51.53546 | 2501 ft | 186 kts | 180° |
| 2026-05-07 10:23 | 25.52146 | 51.53536 | 2500 ft | 186 kts | 181° |
| 2026-05-07 10:23 | 25.50852 | 51.53522 | 2501 ft | 186 kts | 181° |
| 2026-05-07 10:24 | 25.49546 | 51.53507 | 2503 ft | 186 kts | 181° |
| 2026-05-07 10:24 | 25.48246 | 51.53491 | 2494 ft | 181 kts | 181° |
| 2026-05-07 10:24 | 25.47018 | 51.53476 | 2505 ft | 176 kts | 181° |
| 2026-05-07 10:24 | 25.45820 | 51.53735 | 2478 ft | 174 kts | 158° |
| 2026-05-07 10:25 | 25.44681 | 51.54243 | 2515 ft | 175 kts | 158° |
| 2026-05-07 10:25 | 25.43561 | 51.54743 | 2494 ft | 174 kts | 158° |
| 2026-05-07 10:25 | 25.42456 | 51.55244 | 2470 ft | 162 kts | 158° |
| 2026-05-07 10:25 | 25.41424 | 51.55705 | 2472 ft | 156 kts | 158° |
| 2026-05-07 10:26 | 25.40410 | 51.56155 | 2266 ft | 157 kts | 158° |
| 2026-05-07 10:26 | 25.39404 | 51.56599 | 2068 ft | 155 kts | 158° |
| 2026-05-07 10:26 | 25.38399 | 51.57041 | 1867 ft | 154 kts | 158° |
| 2026-05-07 10:26 | 25.37404 | 51.57478 | 1665 ft | 154 kts | 158° |
| 2026-05-07 10:27 | 25.36407 | 51.57916 | 1460 ft | 153 kts | 158° |
| 2026-05-07 10:27 | 25.35411 | 51.58353 | 1254 ft | 153 kts | 158° |
| 2026-05-07 10:27 | 25.34425 | 51.58785 | 1049 ft | 152 kts | 158° |
| 2026-05-07 10:27 | 25.33425 | 51.59224 | 841 ft | 152 kts | 158° |
| 2026-05-07 10:28 | 25.32449 | 51.59652 | 639 ft | 152 kts | 158° |
| 2026-05-07 10:28 | 25.31469 | 51.60081 | 435 ft | 151 kts | 158° |
| 2026-05-07 10:28 | 25.30488 | 51.60511 | 234 ft | 151 kts | 158° |
| 2026-05-07 10:28 | 25.29502 | 51.60944 | 44 ft | 152 kts | 159° |
| 2026-05-07 10:29 | 25.28592 | 51.61332 | 14 ft | 125 kts | 161° |
| 2026-05-07 10:29 | 25.27908 | 51.61636 | 13 ft | 84 kts | 158° |
| 2026-05-07 10:29 | 25.27312 | 51.61890 | 14 ft | 105 kts | 161° |
| 2026-05-07 10:30 | 25.26450 | 51.62003 | 13 ft | 0 kts | 192° |